createdAt,value
2019-01-21T00:07:20.295Z,30.33
2019-01-21T00:10:09.202Z,31.67
2019-01-21T00:12:58.143Z,35.67
2019-01-21T00:16:06.411Z,37.53
2019-01-21T00:18:55.355Z,19.23
2019-01-21T00:21:44.287Z,30.63
2019-01-21T00:24:33.168Z,41.43
2019-01-21T00:27:23.636Z,20.07
2019-01-21T00:30:12.742Z,27.00
2019-01-21T00:33:01.675Z,28.73
2019-01-21T00:35:50.553Z,23.10
2019-01-21T00:41:56.723Z,25.17
2019-01-21T00:44:45.724Z,28.80
2019-01-21T00:47:34.655Z,28.30
2019-01-21T00:50:23.592Z,32.03
2019-01-21T00:53:31.867Z,24.03
2019-01-21T00:56:31.119Z,29.43
2019-01-21T00:59:19.995Z,23.87
2019-01-21T01:01:49.653Z,23.60
2019-01-21T01:04:19.370Z,29.67
2019-01-21T01:06:48.915Z,30.27
2019-01-21T01:09:18.420Z,26.73
2019-01-21T01:11:48.017Z,22.60
2019-01-21T01:14:17.599Z,30.20
2019-01-21T01:16:47.195Z,29.90
2019-01-21T01:19:16.758Z,21.57
2019-01-21T01:21:46.278Z,22.73
2019-01-21T01:24:15.771Z,24.20
2019-01-21T01:26:45.362Z,28.63
2019-01-21T01:29:14.923Z,36.70
2019-01-21T01:31:44.510Z,28.27
2019-01-21T01:34:14.082Z,37.83
2019-01-21T01:36:43.712Z,23.50
2019-01-21T01:39:13.270Z,33.30
2019-01-21T01:41:42.878Z,36.47
2019-01-21T01:44:12.512Z,31.27
2019-01-21T01:46:42.539Z,34.57
2019-01-21T01:49:12.094Z,33.63
2019-01-21T01:51:41.645Z,31.53
2019-01-21T01:54:11.354Z,28.80
2019-01-21T01:56:40.948Z,25.93
2019-01-21T01:59:10.826Z,23.20
2019-01-21T02:01:40.558Z,19.50
2019-01-21T02:04:10.266Z,25.60
2019-01-21T02:06:41.411Z,20.30
2019-01-21T02:09:12.611Z,24.67
2019-01-21T02:11:42.822Z,25.87
2019-01-21T02:14:12.399Z,32.80
2019-01-21T02:16:42.218Z,18.10
2019-01-21T02:19:12.894Z,23.60
2019-01-21T02:21:43.401Z,22.93
2019-01-21T02:24:16.019Z,18.07
2019-01-21T02:26:48.666Z,29.63
2019-01-21T02:29:21.277Z,34.73
2019-01-21T02:32:11.859Z,21.30
2019-01-21T02:34:50.279Z,29.63
2019-01-21T02:37:34.885Z,17.77
2019-01-21T02:40:24.259Z,25.40
2019-01-21T02:43:02.682Z,26.97
2019-01-21T02:45:38.222Z,23.63
2019-01-21T02:48:19.428Z,25.30
2019-01-21T02:50:52.175Z,27.93
2019-01-21T02:53:24.811Z,29.07
2019-01-21T02:56:09.201Z,19.10
2019-01-21T02:58:47.429Z,13.50
2019-01-21T03:01:42.139Z,44.03
2019-01-21T03:04:23.300Z,18.57
2019-01-21T03:06:58.398Z,32.83
2019-01-21T03:09:33.538Z,21.13
2019-01-21T03:12:08.607Z,16.90
2019-01-21T03:14:49.737Z,26.87
2019-01-21T03:17:41.926Z,17.00
2019-01-21T03:20:20.531Z,24.00
2019-01-21T03:22:55.846Z,28.80
2019-01-21T03:25:37.320Z,18.67
2019-01-21T03:28:10.074Z,17.97
2019-01-21T03:31:16.793Z,20.87
2019-01-21T03:34:00.830Z,21.87
2019-01-21T03:36:36.076Z,21.40
2019-01-21T03:39:36.588Z,25.70
2019-01-21T03:42:09.270Z,25.93
2019-01-21T03:44:53.812Z,21.17
2019-01-21T03:47:28.993Z,15.47
2019-01-21T03:50:20.940Z,23.10
2019-01-21T03:52:53.630Z,26.30
2019-01-21T03:55:23.266Z,25.70
2019-01-21T03:58:10.590Z,24.77
2019-01-21T04:00:45.590Z,23.23
2019-01-21T04:03:43.679Z,19.73
2019-01-21T04:06:16.267Z,18.60
2019-01-21T04:09:05.256Z,22.03
2019-01-21T04:11:40.267Z,20.37
2019-01-21T04:14:30.014Z,31.97
2019-01-21T04:17:08.363Z,20.00
2019-01-21T04:19:41.263Z,26.63
2019-01-21T04:22:19.782Z,16.27
2019-01-21T04:24:54.898Z,23.87
2019-01-21T04:27:41.979Z,31.63
2019-01-21T04:30:20.653Z,26.93
2019-01-21T04:32:56.338Z,23.43
2019-01-21T04:35:34.953Z,19.30
2019-01-21T04:38:07.547Z,13.20
2019-01-21T04:40:43.134Z,23.13
2019-01-21T04:43:34.011Z,19.50
2019-01-21T04:46:21.464Z,28.40
2019-01-21T04:49:05.985Z,27.23
2019-01-21T04:52:00.831Z,17.20
2019-01-21T04:54:54.535Z,20.90
2019-01-21T04:57:38.839Z,24.27
2019-01-21T05:00:23.418Z,20.67
2019-01-21T05:03:14.090Z,22.00
2019-01-21T05:06:04.573Z,18.53
2019-01-21T05:08:51.775Z,20.67
2019-01-21T05:11:26.896Z,18.50
2019-01-21T05:14:02.254Z,29.07
2019-01-21T05:16:49.491Z,18.47
2019-01-21T05:19:39.996Z,19.90
2019-01-21T05:22:21.116Z,24.10
2019-01-21T05:25:17.485Z,25.43
2019-01-21T05:28:09.282Z,16.53
2019-01-21T05:30:44.462Z,28.80
2019-01-21T05:33:19.619Z,22.40
2019-01-21T05:35:57.916Z,14.60
2019-01-21T05:38:39.198Z,20.87
2019-01-21T05:41:26.350Z,26.80
2019-01-21T05:44:13.871Z,18.90
2019-01-21T05:46:51.963Z,15.93
2019-01-21T05:49:51.120Z,14.07
2019-01-21T05:52:23.730Z,22.97
2019-01-21T05:55:24.535Z,13.60
2019-01-21T05:58:08.985Z,19.50
2019-01-21T06:00:47.530Z,16.80
2019-01-21T06:03:28.834Z,16.50
2019-01-21T06:06:07.395Z,18.10
2019-01-21T06:08:51.711Z,22.63
2019-01-21T06:11:32.502Z,20.53
2019-01-21T06:14:07.740Z,20.13
2019-01-21T06:16:43.251Z,15.83
2019-01-21T06:19:32.100Z,12.03
2019-01-21T06:22:10.393Z,11.03
2019-01-21T06:24:48.446Z,24.30
2019-01-21T06:27:23.767Z,20.63
2019-01-21T06:30:14.363Z,17.17
2019-01-21T06:32:49.849Z,18.00
2019-01-21T06:35:34.422Z,24.10
2019-01-21T06:38:09.482Z,18.47
2019-01-21T06:40:58.350Z,18.47
2019-01-21T06:43:36.535Z,24.60
2019-01-21T06:46:14.784Z,24.93
2019-01-21T06:48:49.883Z,11.73
2019-01-21T06:51:34.299Z,24.00
2019-01-21T06:54:15.728Z,17.83
2019-01-21T06:56:57.186Z,15.97
2019-01-21T06:59:32.386Z,19.00
2019-01-21T07:02:10.822Z,21.13
2019-01-21T07:05:01.282Z,18.10
2019-01-21T07:08:02.327Z,15.03
2019-01-21T07:10:37.626Z,21.27
2019-01-21T07:13:25.258Z,22.40
2019-01-21T07:16:06.649Z,25.47
2019-01-21T07:19:00.361Z,18.07
2019-01-21T07:22:06.007Z,22.33
2019-01-21T07:24:52.970Z,21.70
2019-01-21T07:27:40.445Z,15.13
2019-01-21T07:30:13.037Z,21.43
2019-01-21T07:33:06.038Z,15.47
2019-01-21T07:35:59.611Z,23.17
2019-01-21T07:38:54.733Z,29.97
2019-01-21T07:41:30.115Z,23.90
2019-01-21T07:44:02.771Z,16.23
2019-01-21T07:46:54.031Z,10.77
2019-01-21T07:49:41.313Z,21.63
2019-01-21T07:52:38.371Z,17.30
2019-01-21T07:55:16.642Z,15.17
2019-01-21T07:58:21.818Z,12.60
2019-01-21T08:01:06.327Z,26.67
2019-01-21T08:03:47.851Z,15.80
2019-01-21T08:06:20.446Z,21.10
2019-01-21T08:08:58.520Z,24.03
2019-01-21T08:11:31.075Z,39.33
2019-01-21T08:14:09.273Z,22.17
2019-01-21T08:16:50.659Z,17.67
2019-01-21T08:19:39.503Z,17.20
2019-01-21T08:22:23.923Z,13.43
2019-01-21T08:25:29.307Z,16.50
2019-01-21T08:28:01.890Z,17.63
2019-01-21T08:30:40.107Z,21.70
2019-01-21T08:33:21.208Z,18.10
2019-01-21T08:36:05.391Z,12.70
2019-01-21T08:38:52.561Z,24.60
2019-01-21T08:41:41.555Z,22.57
2019-01-21T08:44:39.091Z,19.77
2019-01-21T08:47:20.479Z,24.50
2019-01-21T08:49:55.970Z,19.83
2019-01-21T08:52:36.828Z,28.20
2019-01-21T08:55:42.031Z,34.40
2019-01-21T08:58:35.787Z,19.13
2019-01-21T09:01:17.185Z,19.67
2019-01-21T09:04:15.298Z,20.60
2019-01-21T09:09:34.037Z,26.07
2019-01-21T09:12:24.830Z,21.57
2019-01-21T09:15:00.207Z,29.70
2019-01-21T09:17:53.370Z,20.77
2019-01-21T09:20:40.390Z,18.03
2019-01-21T09:23:24.778Z,20.03
2019-01-21T09:26:03.016Z,24.53
2019-01-21T09:28:38.530Z,26.83
2019-01-21T09:31:25.617Z,22.90
2019-01-21T09:34:00.837Z,18.93
2019-01-21T09:36:47.775Z,18.00
2019-01-21T09:39:45.674Z,17.17
2019-01-21T09:42:38.754Z,21.57
2019-01-21T09:45:38.303Z,18.50
2019-01-21T09:48:06.887Z,19.40
2019-01-21T09:50:40.393Z,21.10
2019-01-21T09:53:10.134Z,19.57
2019-01-21T09:55:39.893Z,22.80
2019-01-21T09:58:10.031Z,19.03
2019-01-21T10:00:39.754Z,16.80
2019-01-21T10:03:12.058Z,20.60
2019-01-21T10:05:44.993Z,23.13
2019-01-21T10:08:38.642Z,24.03
2019-01-21T10:11:31.790Z,22.73
2019-01-21T10:14:20.666Z,22.60
2019-01-21T10:17:05.086Z,25.43
2019-01-21T10:20:00.026Z,22.80
2019-01-21T10:22:32.755Z,24.00
2019-01-21T10:25:08.218Z,26.20
2019-01-21T10:27:46.499Z,20.47
2019-01-21T10:30:33.637Z,26.63
2019-01-21T10:33:21.141Z,20.80
2019-01-21T10:36:16.613Z,20.90
2019-01-21T10:38:54.688Z,26.47
2019-01-21T10:41:36.001Z,26.43
2019-01-21T10:44:16.956Z,30.47
2019-01-21T10:46:58.347Z,22.83
2019-01-21T10:49:39.598Z,24.60
2019-01-21T10:52:28.546Z,34.00
2019-01-21T10:55:01.191Z,25.03
2019-01-21T10:57:39.646Z,33.30
2019-01-21T11:00:20.727Z,24.07
2019-01-21T11:03:14.516Z,28.13
2019-01-21T11:05:49.880Z,27.00
2019-01-21T11:08:34.355Z,24.60
2019-01-21T11:11:06.994Z,39.30
2019-01-21T11:13:48.253Z,21.30
2019-01-21T11:16:38.974Z,24.77
2019-01-21T11:19:23.146Z,23.07
2019-01-21T11:21:55.726Z,24.20
2019-01-21T11:24:43.226Z,22.70
2019-01-21T11:27:30.906Z,25.03
2019-01-21T11:30:21.440Z,24.80
2019-01-21T11:32:57.103Z,44.20
2019-01-21T11:35:54.867Z,25.70
2019-01-21T11:38:27.447Z,27.97
2019-01-21T11:41:11.899Z,31.77
2019-01-21T11:43:49.854Z,31.43
2019-01-21T11:46:25.147Z,29.13
2019-01-21T11:49:06.486Z,35.23
2019-01-21T11:52:00.082Z,31.57
2019-01-21T11:54:44.150Z,30.47
2019-01-21T11:57:19.165Z,29.70
2019-01-21T12:00:05.141Z,25.73
2019-01-21T12:02:40.704Z,31.50
2019-01-21T12:05:15.822Z,28.53
2019-01-21T12:08:06.375Z,33.67
2019-01-21T12:10:47.022Z,29.90
2019-01-21T12:13:28.330Z,22.67
2019-01-21T12:16:03.624Z,28.80
2019-01-21T12:18:39.087Z,33.47
2019-01-21T12:21:14.283Z,22.50
2019-01-21T12:23:49.800Z,23.83
2019-01-21T12:26:30.750Z,29.33
2019-01-21T12:29:08.772Z,31.80
2019-01-21T12:31:57.760Z,30.87
2019-01-21T12:34:38.765Z,25.70
2019-01-21T12:37:11.362Z,36.13
2019-01-21T12:39:49.221Z,27.90
2019-01-21T12:42:39.437Z,23.80
2019-01-21T12:45:12.010Z,26.53
2019-01-21T12:47:50.067Z,29.50
2019-01-21T12:50:51.116Z,28.00
2019-01-21T12:53:40.319Z,27.87
2019-01-21T12:56:41.207Z,33.80
2019-01-21T12:59:37.951Z,32.40
2019-01-21T13:02:16.542Z,34.10
2019-01-21T13:04:58.526Z,35.83
2019-01-21T13:07:39.970Z,28.67
2019-01-21T13:10:24.396Z,43.83
2019-01-21T13:13:21.162Z,38.47
2019-01-21T13:16:05.243Z,28.30
2019-01-21T13:19:10.911Z,27.07
2019-01-21T13:21:57.870Z,28.13
2019-01-21T13:24:54.222Z,25.03
2019-01-21T13:27:44.354Z,28.73
2019-01-21T13:30:16.963Z,34.43
2019-01-21T13:32:55.112Z,27.80
2019-01-21T13:35:27.779Z,27.37
2019-01-21T13:38:09.066Z,30.47
2019-01-21T13:40:47.406Z,24.80
2019-01-21T13:43:48.283Z,33.90
2019-01-21T13:46:49.035Z,28.40
2019-01-21T13:49:36.334Z,26.50
2019-01-21T13:52:34.357Z,32.00
2019-01-21T13:55:06.931Z,29.23
2019-01-21T13:57:48.018Z,20.20
2019-01-21T14:00:38.394Z,30.07
2019-01-21T14:03:16.737Z,31.20
2019-01-21T14:05:54.743Z,25.67
2019-01-21T14:08:35.913Z,33.67
2019-01-21T14:11:08.646Z,28.47
2019-01-21T14:13:46.779Z,33.23
2019-01-21T14:16:34.211Z,26.00
2019-01-21T14:19:06.879Z,23.10
2019-01-21T14:21:42.572Z,30.73
2019-01-21T14:24:37.274Z,27.20
2019-01-21T14:27:18.727Z,28.67
2019-01-21T14:30:00.238Z,30.10
2019-01-21T14:32:35.470Z,33.07
2019-01-21T14:35:10.738Z,38.27
2019-01-21T14:37:58.030Z,29.30
2019-01-21T14:40:30.817Z,38.20
2019-01-21T14:43:08.579Z,38.60
2019-01-21T14:45:43.077Z,32.77
2019-01-21T14:48:30.275Z,33.80
2019-01-21T14:51:23.423Z,32.60
2019-01-21T14:54:10.613Z,28.27
2019-01-21T14:56:43.326Z,26.70
2019-01-21T14:59:36.438Z,29.67
2019-01-21T15:02:11.576Z,32.90
2019-01-21T15:04:52.761Z,28.00
2019-01-21T15:07:37.494Z,37.03
2019-01-21T15:10:26.341Z,34.63
2019-01-21T15:12:59.074Z,38.57
2019-01-21T15:15:51.913Z,27.43
2019-01-21T15:18:30.586Z,35.83
2019-01-21T15:21:09.194Z,54.03
2019-01-21T15:23:42.112Z,41.07
2019-01-21T15:26:32.799Z,44.37
2019-01-21T15:29:17.326Z,37.87
2019-01-21T15:31:55.780Z,40.63
2019-01-21T15:34:46.141Z,46.13
2019-01-21T15:37:21.550Z,39.17
2019-01-21T15:39:57.241Z,41.30
2019-01-21T15:42:32.423Z,42.30
2019-01-21T15:45:16.752Z,47.10
2019-01-21T15:48:06.009Z,56.20
2019-01-21T15:50:53.444Z,55.03
2019-01-21T15:53:46.905Z,59.03
2019-01-21T15:56:30.928Z,44.07
2019-01-21T15:59:09.266Z,49.20
2019-01-21T16:01:44.912Z,46.63
2019-01-21T16:04:23.189Z,34.07
2019-01-21T16:07:04.635Z,37.70
2019-01-21T16:09:37.376Z,36.17
2019-01-21T16:12:33.546Z,33.07
2019-01-21T16:15:06.268Z,37.97
2019-01-21T16:17:47.629Z,35.13
2019-01-21T16:20:20.226Z,32.17
2019-01-21T16:23:04.315Z,32.80
2019-01-21T16:25:37.743Z,39.77
2019-01-21T16:28:19.190Z,35.47
2019-01-21T16:30:52.226Z,28.30
2019-01-21T16:33:57.755Z,31.63
2019-01-21T16:36:36.150Z,33.73
2019-01-21T16:39:08.783Z,36.33
2019-01-21T16:41:44.138Z,30.30
2019-01-21T16:44:13.756Z,26.47
2019-01-21T16:46:43.423Z,37.10
2019-01-21T16:49:13.032Z,30.67
2019-01-21T16:51:42.783Z,35.57
2019-01-21T16:54:12.789Z,30.53
2019-01-21T16:56:42.791Z,38.60
2019-01-21T16:59:12.551Z,30.63
2019-01-21T17:01:42.066Z,38.90
2019-01-21T17:04:11.608Z,34.63
2019-01-21T17:06:41.115Z,35.83
2019-01-21T17:09:11.047Z,32.70
2019-01-21T17:11:40.674Z,40.63
2019-01-21T17:14:11.287Z,32.80
2019-01-21T17:16:41.057Z,40.93
2019-01-21T17:19:10.698Z,36.60
2019-01-21T17:21:40.574Z,33.17
2019-01-21T17:24:10.446Z,29.13
2019-01-21T17:26:41.314Z,35.80
2019-01-21T17:29:11.168Z,31.57
2019-01-21T17:31:41.006Z,36.83
2019-01-21T17:34:10.867Z,37.30
2019-01-21T17:36:40.851Z,42.57
2019-01-21T17:39:10.590Z,27.97
2019-01-21T17:41:40.477Z,37.00
2019-01-21T17:44:10.116Z,33.17
2019-01-21T17:46:40.036Z,42.00
2019-01-21T17:49:09.667Z,29.87
2019-01-21T17:51:39.459Z,41.50
2019-01-21T17:54:09.208Z,36.93
2019-01-21T17:56:38.776Z,37.27
2019-01-21T17:59:08.440Z,39.13
2019-01-21T18:01:39.434Z,34.10
2019-01-21T18:04:09.263Z,35.33
2019-01-21T18:06:39.090Z,38.90
2019-01-21T18:09:08.975Z,44.33
2019-01-21T18:11:41.454Z,40.67
2019-01-21T18:14:10.103Z,44.27
2019-01-21T18:16:39.836Z,43.27
2019-01-21T18:19:09.696Z,38.43
2019-01-21T18:21:40.218Z,38.40
2019-01-21T18:24:10.634Z,42.57
2019-01-21T18:26:40.513Z,53.90
2019-01-21T18:29:10.593Z,58.90
2019-01-21T18:31:40.166Z,52.30
2019-01-21T18:34:09.806Z,42.67
2019-01-21T18:36:39.467Z,45.07
2019-01-21T18:39:11.560Z,33.07
2019-01-21T18:41:41.386Z,46.73
2019-01-21T18:44:11.155Z,39.23
2019-01-21T18:46:40.844Z,50.57
2019-01-21T18:49:10.680Z,42.43
2019-01-21T18:51:46.486Z,43.97
2019-01-21T18:54:11.916Z,26.47
2019-01-21T18:56:43.128Z,42.17
2019-01-21T18:59:12.842Z,39.30
2019-01-21T19:01:42.470Z,38.20
2019-01-21T19:04:16.191Z,37.17
2019-01-21T19:06:45.784Z,40.03
2019-01-21T19:09:15.657Z,37.20
2019-01-21T19:11:45.199Z,38.10
2019-01-21T19:14:14.947Z,48.37
2019-01-21T19:16:44.736Z,34.70
2019-01-21T19:19:14.507Z,36.30
2019-01-21T19:21:44.182Z,33.40
2019-01-21T19:24:14.065Z,32.77
2019-01-21T19:26:43.802Z,33.37
2019-01-21T19:29:13.465Z,42.97
2019-01-21T19:31:43.527Z,55.70
2019-01-21T19:34:13.252Z,48.77
2019-01-21T19:36:43.037Z,46.20
2019-01-21T19:39:12.690Z,54.87
2019-01-21T19:41:42.641Z,44.33
2019-01-21T19:44:12.752Z,50.30
2019-01-21T19:46:44.299Z,56.50
2019-01-21T19:49:14.180Z,43.33
2019-01-21T19:51:48.007Z,45.83
2019-01-21T19:54:17.823Z,45.00
2019-01-21T19:56:47.676Z,58.60
2019-01-21T19:59:20.456Z,48.70
2019-01-21T20:01:49.258Z,51.35
2019-01-21T20:04:23.044Z,35.35
2019-01-21T20:06:52.851Z,33.43
2019-01-21T20:09:22.697Z,28.15
2019-01-21T20:11:52.477Z,34.75
2019-01-21T20:14:22.175Z,43.87
2019-01-21T20:16:51.922Z,37.75
2019-01-21T20:19:21.651Z,35.37
2019-01-21T20:21:51.350Z,46.63
2019-01-21T20:24:21.831Z,36.53
2019-01-21T20:26:55.528Z,38.60
2019-01-21T20:29:25.539Z,42.73
2019-01-21T20:31:55.467Z,41.40
2019-01-21T20:34:25.118Z,45.70
2019-01-21T20:36:54.721Z,43.63
2019-01-21T20:39:24.545Z,40.80
2019-01-21T20:41:54.151Z,35.70
2019-01-21T20:44:23.915Z,39.77
2019-01-21T20:46:53.703Z,63.35
2019-01-21T20:49:23.691Z,36.50
2019-01-21T20:51:54.227Z,75.80
2019-01-21T20:54:24.122Z,50.37
2019-01-21T20:56:53.793Z,61.40
2019-01-21T20:59:23.587Z,43.57
2019-01-21T21:01:55.121Z,42.93
2019-01-21T21:04:24.937Z,52.73
2019-01-21T21:06:54.990Z,57.40
2019-01-21T21:09:24.934Z,52.30
2019-01-21T21:11:54.826Z,45.13
2019-01-21T21:14:28.639Z,76.23
2019-01-21T21:16:58.517Z,61.07
2019-01-21T21:19:28.225Z,56.07
2019-01-21T21:21:58.136Z,62.80
2019-01-21T21:24:32.053Z,48.67
2019-01-21T21:27:01.816Z,60.90
2019-01-21T21:29:31.493Z,49.43
2019-01-21T21:32:03.246Z,51.83
2019-01-21T21:34:32.988Z,53.40
2019-01-21T21:37:03.456Z,60.13
2019-01-21T21:39:33.111Z,47.07
2019-01-21T21:42:02.943Z,52.77
2019-01-21T21:44:33.063Z,55.80
2019-01-21T21:47:02.693Z,58.20
2019-01-21T21:49:32.343Z,49.93
2019-01-21T21:52:02.234Z,55.13
2019-01-21T21:54:32.181Z,41.00
2019-01-21T21:57:02.381Z,53.37
2019-01-21T21:59:32.139Z,53.53
2019-01-21T22:02:01.980Z,53.00
2019-01-21T22:04:31.749Z,44.67
2019-01-21T22:07:01.418Z,59.77
2019-01-21T22:09:31.460Z,47.17
2019-01-21T22:12:01.419Z,53.20
2019-01-21T22:14:31.265Z,49.63
2019-01-21T22:17:01.434Z,45.70
2019-01-21T22:19:31.135Z,50.10
2019-01-21T22:22:00.878Z,50.47
2019-01-21T22:24:30.589Z,47.23
2019-01-21T22:27:00.636Z,45.07
2019-01-21T22:29:30.387Z,60.47
2019-01-21T22:32:00.160Z,61.50
2019-01-21T22:34:29.998Z,41.67
2019-01-21T22:37:00.574Z,47.50
2019-01-21T22:39:30.251Z,55.37
2019-01-21T22:41:59.870Z,49.73
2019-01-21T22:44:29.599Z,42.17
2019-01-21T22:46:59.315Z,49.23
2019-01-21T22:49:28.843Z,48.50
2019-01-21T22:51:58.528Z,59.30
2019-01-21T22:54:28.371Z,43.30
2019-01-21T22:56:58.270Z,61.70
2019-01-21T22:59:28.006Z,60.87
2019-01-21T23:01:57.808Z,56.90
2019-01-21T23:04:27.415Z,49.13
2019-01-21T23:06:57.162Z,42.37
2019-01-21T23:09:26.938Z,57.47
2019-01-21T23:11:56.668Z,62.50
2019-01-21T23:14:26.388Z,42.00
2019-01-21T23:16:56.041Z,48.80
2019-01-21T23:19:25.768Z,62.30
2019-01-21T23:21:55.497Z,49.77
2019-01-21T23:24:25.175Z,53.13
2019-01-21T23:26:54.918Z,61.77
2019-01-21T23:29:24.607Z,39.07
2019-01-21T23:31:54.332Z,45.47
2019-01-21T23:34:24.198Z,68.80
2019-01-21T23:36:54.055Z,45.10
2019-01-21T23:39:24.437Z,53.20
2019-01-21T23:41:54.164Z,46.53
2019-01-21T23:44:23.932Z,53.00
2019-01-21T23:46:53.502Z,46.30
2019-01-21T23:49:23.100Z,33.40
2019-01-21T23:51:52.736Z,34.73
2019-01-21T23:54:22.398Z,32.93
2019-01-21T23:56:52.010Z,37.23
2019-01-21T23:59:21.719Z,33.37
